sensor_id;sensor_type;location;lat;lon;timestamp;P1;durP1;ratioP1;P2;durP2;ratioP2
77520;SDS011;66633;47.628;19.158;2023-06-22T00:01:03;14.18;;;5.88;;
77520;SDS011;66633;47.628;19.158;2023-06-22T00:03:28;14.18;;;6.30;;
77520;SDS011;66633;47.628;19.158;2023-06-22T00:05:53;16.92;;;6.32;;
77520;SDS011;66633;47.628;19.158;2023-06-22T00:08:19;10.52;;;5.75;;
77520;SDS011;66633;47.628;19.158;2023-06-22T00:10:45;10.82;;;5.43;;
77520;SDS011;66633;47.628;19.158;2023-06-22T00:13:11;11.15;;;5.82;;
77520;SDS011;66633;47.628;19.158;2023-06-22T00:15:39;10.60;;;5.35;;
77520;SDS011;66633;47.628;19.158;2023-06-22T00:18:09;12.23;;;5.95;;
77520;SDS011;66633;47.628;19.158;2023-06-22T00:20:35;12.80;;;5.35;;
77520;SDS011;66633;47.628;19.158;2023-06-22T00:23:04;11.15;;;5.15;;
77520;SDS011;66633;47.628;19.158;2023-06-22T00:28:02;9.57;;;5.97;;
77520;SDS011;66633;47.628;19.158;2023-06-22T00:30:29;10.30;;;5.68;;
77520;SDS011;66633;47.628;19.158;2023-06-22T00:32:55;9.35;;;5.38;;
77520;SDS011;66633;47.628;19.158;2023-06-22T00:35:20;9.40;;;4.95;;
77520;SDS011;66633;47.628;19.158;2023-06-22T00:37:46;8.63;;;5.30;;
77520;SDS011;66633;47.628;19.158;2023-06-22T00:40:11;9.77;;;5.18;;
77520;SDS011;66633;47.628;19.158;2023-06-22T00:42:39;9.40;;;4.78;;
77520;SDS011;66633;47.628;19.158;2023-06-22T00:45:05;9.07;;;5.30;;
77520;SDS011;66633;47.628;19.158;2023-06-22T00:47:31;11.27;;;5.53;;
77520;SDS011;66633;47.628;19.158;2023-06-22T00:49:59;9.98;;;4.97;;
77520;SDS011;66633;47.628;19.158;2023-06-22T00:52:25;8.30;;;5.47;;
77520;SDS011;66633;47.628;19.158;2023-06-22T00:54:54;8.85;;;5.43;;
77520;SDS011;66633;47.628;19.158;2023-06-22T00:57:21;9.75;;;5.07;;
77520;SDS011;66633;47.628;19.158;2023-06-22T00:59:48;8.48;;;5.45;;
77520;SDS011;66633;47.628;19.158;2023-06-22T01:02:14;10.35;;;5.55;;
77520;SDS011;66633;47.628;19.158;2023-06-22T01:04:40;11.60;;;6.05;;
77520;SDS011;66633;47.628;19.158;2023-06-22T01:12:48;9.15;;;5.20;;
77520;SDS011;66633;47.628;19.158;2023-06-22T01:15:21;8.02;;;4.93;;
77520;SDS011;66633;47.628;19.158;2023-06-22T01:17:52;9.02;;;5.30;;
77520;SDS011;66633;47.628;19.158;2023-06-22T01:20:18;10.82;;;5.05;;
77520;SDS011;66633;47.628;19.158;2023-06-22T01:25:24;8.80;;;4.78;;
77520;SDS011;66633;47.628;19.158;2023-06-22T01:30:29;9.75;;;5.95;;
77520;SDS011;66633;47.628;19.158;2023-06-22T01:32:57;10.75;;;6.07;;
77520;SDS011;66633;47.628;19.158;2023-06-22T01:35:24;8.63;;;4.88;;
77520;SDS011;66633;47.628;19.158;2023-06-22T01:37:50;8.73;;;5.32;;
77520;SDS011;66633;47.628;19.158;2023-06-22T01:40:16;8.55;;;5.13;;
77520;SDS011;66633;47.628;19.158;2023-06-22T01:42:43;12.85;;;6.05;;
77520;SDS011;66633;47.628;19.158;2023-06-22T01:45:10;12.23;;;6.20;;
77520;SDS011;66633;47.628;19.158;2023-06-22T01:47:37;11.93;;;6.03;;
77520;SDS011;66633;47.628;19.158;2023-06-22T01:50:04;9.90;;;5.60;;
77520;SDS011;66633;47.628;19.158;2023-06-22T01:52:30;10.98;;;5.60;;
77520;SDS011;66633;47.628;19.158;2023-06-22T01:54:56;10.07;;;6.18;;
77520;SDS011;66633;47.628;19.158;2023-06-22T01:57:23;7.10;;;4.38;;
77520;SDS011;66633;47.628;19.158;2023-06-22T01:59:52;10.93;;;5.72;;
77520;SDS011;66633;47.628;19.158;2023-06-22T02:02:19;7.60;;;4.43;;
77520;SDS011;66633;47.628;19.158;2023-06-22T02:04:52;10.80;;;5.75;;
77520;SDS011;66633;47.628;19.158;2023-06-22T02:07:46;8.68;;;5.05;;
77520;SDS011;66633;47.628;19.158;2023-06-22T02:10:17;8.13;;;4.82;;
77520;SDS011;66633;47.628;19.158;2023-06-22T02:12:45;9.00;;;4.70;;
77520;SDS011;66633;47.628;19.158;2023-06-22T02:15:12;10.70;;;5.43;;
77520;SDS011;66633;47.628;19.158;2023-06-22T02:17:39;11.18;;;5.32;;
77520;SDS011;66633;47.628;19.158;2023-06-22T02:20:13;10.05;;;5.70;;
77520;SDS011;66633;47.628;19.158;2023-06-22T02:25:04;8.07;;;5.10;;
77520;SDS011;66633;47.628;19.158;2023-06-22T02:27:30;8.05;;;4.72;;
77520;SDS011;66633;47.628;19.158;2023-06-22T02:29:56;9.57;;;5.50;;
77520;SDS011;66633;47.628;19.158;2023-06-22T02:32:22;11.10;;;6.00;;
77520;SDS011;66633;47.628;19.158;2023-06-22T02:34:47;11.30;;;6.90;;
77520;SDS011;66633;47.628;19.158;2023-06-22T02:37:16;8.77;;;6.10;;
77520;SDS011;66633;47.628;19.158;2023-06-22T02:39:42;10.13;;;6.30;;
77520;SDS011;66633;47.628;19.158;2023-06-22T02:42:07;10.10;;;5.72;;
77520;SDS011;66633;47.628;19.158;2023-06-22T02:44:35;10.13;;;5.82;;
77520;SDS011;66633;47.628;19.158;2023-06-22T02:47:01;10.68;;;6.00;;
77520;SDS011;66633;47.628;19.158;2023-06-22T02:49:26;11.40;;;5.80;;
77520;SDS011;66633;47.628;19.158;2023-06-22T02:51:52;11.15;;;6.35;;
77520;SDS011;66633;47.628;19.158;2023-06-22T02:54:18;12.15;;;6.18;;
77520;SDS011;66633;47.628;19.158;2023-06-22T02:56:43;11.80;;;6.35;;
77520;SDS011;66633;47.628;19.158;2023-06-22T02:59:10;11.65;;;6.80;;
77520;SDS011;66633;47.628;19.158;2023-06-22T03:01:36;12.95;;;7.05;;
77520;SDS011;66633;47.628;19.158;2023-06-22T03:04:08;11.70;;;6.97;;
77520;SDS011;66633;47.628;19.158;2023-06-22T03:06:34;10.68;;;6.25;;
77520;SDS011;66633;47.628;19.158;2023-06-22T03:09:01;14.70;;;7.78;;
77520;SDS011;66633;47.628;19.158;2023-06-22T03:11:32;12.35;;;6.60;;
77520;SDS011;66633;47.628;19.158;2023-06-22T03:13:59;10.32;;;6.30;;
77520;SDS011;66633;47.628;19.158;2023-06-22T03:16:25;11.93;;;7.25;;
77520;SDS011;66633;47.628;19.158;2023-06-22T03:18:51;11.55;;;7.03;;
77520;SDS011;66633;47.628;19.158;2023-06-22T03:21:16;11.43;;;7.13;;
77520;SDS011;66633;47.628;19.158;2023-06-22T03:23:42;11.25;;;6.47;;
77520;SDS011;66633;47.628;19.158;2023-06-22T03:26:08;12.55;;;6.60;;
77520;SDS011;66633;47.628;19.158;2023-06-22T03:28:35;11.30;;;6.95;;
77520;SDS011;66633;47.628;19.158;2023-06-22T03:31:00;10.95;;;6.03;;
77520;SDS011;66633;47.628;19.158;2023-06-22T03:33:26;10.70;;;6.72;;
77520;SDS011;66633;47.628;19.158;2023-06-22T03:35:51;10.95;;;5.90;;
77520;SDS011;66633;47.628;19.158;2023-06-22T03:38:17;10.82;;;5.60;;
77520;SDS011;66633;47.628;19.158;2023-06-22T03:40:42;8.90;;;5.28;;
77520;SDS011;66633;47.628;19.158;2023-06-22T03:43:08;11.50;;;5.30;;
77520;SDS011;66633;47.628;19.158;2023-06-22T03:45:34;9.13;;;5.68;;
77520;SDS011;66633;47.628;19.158;2023-06-22T03:48:00;11.27;;;5.50;;
77520;SDS011;66633;47.628;19.158;2023-06-22T03:50:26;11.48;;;5.68;;
77520;SDS011;66633;47.628;19.158;2023-06-22T03:52:51;10.15;;;5.05;;
77520;SDS011;66633;47.628;19.158;2023-06-22T03:55:17;9.00;;;5.10;;
77520;SDS011;66633;47.628;19.158;2023-06-22T03:57:44;10.02;;;6.15;;
77520;SDS011;66633;47.628;19.158;2023-06-22T04:00:10;9.60;;;5.55;;
77520;SDS011;66633;47.628;19.158;2023-06-22T04:02:36;9.65;;;5.05;;
77520;SDS011;66633;47.628;19.158;2023-06-22T04:05:01;10.32;;;5.50;;
77520;SDS011;66633;47.628;19.158;2023-06-22T04:07:26;11.77;;;6.55;;
77520;SDS011;66633;47.628;19.158;2023-06-22T04:09:52;10.75;;;6.75;;
77520;SDS011;66633;47.628;19.158;2023-06-22T04:12:17;16.15;;;7.70;;
77520;SDS011;66633;47.628;19.158;2023-06-22T04:14:43;12.10;;;6.25;;
77520;SDS011;66633;47.628;19.158;2023-06-22T04:17:08;11.50;;;6.03;;
77520;SDS011;66633;47.628;19.158;2023-06-22T04:19:34;11.63;;;6.25;;
77520;SDS011;66633;47.628;19.158;2023-06-22T04:21:59;15.25;;;6.68;;
77520;SDS011;66633;47.628;19.158;2023-06-22T04:24:25;11.75;;;7.22;;
77520;SDS011;66633;47.628;19.158;2023-06-22T04:26:50;14.52;;;6.88;;
77520;SDS011;66633;47.628;19.158;2023-06-22T04:29:19;13.88;;;6.85;;
77520;SDS011;66633;47.628;19.158;2023-06-22T04:31:45;11.43;;;6.80;;
77520;SDS011;66633;47.628;19.158;2023-06-22T04:34:16;12.52;;;6.80;;
77520;SDS011;66633;47.628;19.158;2023-06-22T04:36:42;12.23;;;6.90;;
77520;SDS011;66633;47.628;19.158;2023-06-22T04:39:09;12.00;;;7.20;;
77520;SDS011;66633;47.628;19.158;2023-06-22T04:41:38;13.77;;;7.65;;
77520;SDS011;66633;47.628;19.158;2023-06-22T04:44:17;11.63;;;7.05;;
77520;SDS011;66633;47.628;19.158;2023-06-22T04:46:50;15.27;;;7.72;;
77520;SDS011;66633;47.628;19.158;2023-06-22T04:49:19;13.68;;;8.60;;
77520;SDS011;66633;47.628;19.158;2023-06-22T04:51:47;13.27;;;7.80;;
77520;SDS011;66633;47.628;19.158;2023-06-22T04:54:12;14.77;;;8.70;;
77520;SDS011;66633;47.628;19.158;2023-06-22T04:56:38;16.98;;;8.88;;
77520;SDS011;66633;47.628;19.158;2023-06-22T04:59:05;14.23;;;8.35;;
77520;SDS011;66633;47.628;19.158;2023-06-22T05:01:31;14.43;;;8.00;;
77520;SDS011;66633;47.628;19.158;2023-06-22T05:03:57;13.43;;;8.63;;
77520;SDS011;66633;47.628;19.158;2023-06-22T05:06:23;12.23;;;7.72;;
77520;SDS011;66633;47.628;19.158;2023-06-22T05:08:55;15.45;;;8.55;;
77520;SDS011;66633;47.628;19.158;2023-06-22T05:11:25;14.20;;;7.57;;
77520;SDS011;66633;47.628;19.158;2023-06-22T05:13:51;12.05;;;7.47;;
77520;SDS011;66633;47.628;19.158;2023-06-22T05:16:16;14.55;;;8.30;;
77520;SDS011;66633;47.628;19.158;2023-06-22T05:18:42;17.33;;;8.43;;
77520;SDS011;66633;47.628;19.158;2023-06-22T05:21:08;12.02;;;7.68;;
77520;SDS011;66633;47.628;19.158;2023-06-22T05:23:34;17.52;;;8.02;;
77520;SDS011;66633;47.628;19.158;2023-06-22T05:25:59;14.88;;;8.60;;
77520;SDS011;66633;47.628;19.158;2023-06-22T05:28:25;15.90;;;8.80;;
77520;SDS011;66633;47.628;19.158;2023-06-22T05:30:50;13.63;;;8.45;;
77520;SDS011;66633;47.628;19.158;2023-06-22T05:33:16;14.25;;;8.85;;
77520;SDS011;66633;47.628;19.158;2023-06-22T05:35:41;16.05;;;8.13;;
77520;SDS011;66633;47.628;19.158;2023-06-22T05:38:07;15.15;;;8.02;;
77520;SDS011;66633;47.628;19.158;2023-06-22T05:40:32;12.95;;;7.38;;
77520;SDS011;66633;47.628;19.158;2023-06-22T05:42:58;12.77;;;7.63;;
77520;SDS011;66633;47.628;19.158;2023-06-22T05:45:25;14.95;;;7.10;;
77520;SDS011;66633;47.628;19.158;2023-06-22T05:47:51;12.30;;;7.63;;
77520;SDS011;66633;47.628;19.158;2023-06-22T05:50:16;11.68;;;7.43;;
77520;SDS011;66633;47.628;19.158;2023-06-22T05:52:42;13.00;;;6.40;;
77520;SDS011;66633;47.628;19.158;2023-06-22T05:55:07;13.48;;;6.80;;
77520;SDS011;66633;47.628;19.158;2023-06-22T05:57:33;12.50;;;7.03;;
77520;SDS011;66633;47.628;19.158;2023-06-22T05:59:58;12.70;;;7.10;;
77520;SDS011;66633;47.628;19.158;2023-06-22T06:02:24;9.98;;;6.80;;
77520;SDS011;66633;47.628;19.158;2023-06-22T06:04:50;11.80;;;7.00;;
77520;SDS011;66633;47.628;19.158;2023-06-22T06:07:17;10.15;;;5.75;;
77520;SDS011;66633;47.628;19.158;2023-06-22T06:09:43;11.48;;;6.25;;
77520;SDS011;66633;47.628;19.158;2023-06-22T06:12:09;14.32;;;8.02;;
77520;SDS011;66633;47.628;19.158;2023-06-22T06:14:34;14.38;;;8.27;;
77520;SDS011;66633;47.628;19.158;2023-06-22T06:17:00;13.32;;;7.38;;
77520;SDS011;66633;47.628;19.158;2023-06-22T06:19:25;12.90;;;8.02;;
77520;SDS011;66633;47.628;19.158;2023-06-22T06:21:51;13.18;;;7.45;;
77520;SDS011;66633;47.628;19.158;2023-06-22T06:24:16;11.27;;;6.70;;
77520;SDS011;66633;47.628;19.158;2023-06-22T06:26:41;10.55;;;7.43;;
77520;SDS011;66633;47.628;19.158;2023-06-22T06:29:07;10.68;;;6.95;;
77520;SDS011;66633;47.628;19.158;2023-06-22T06:31:32;12.90;;;6.97;;
77520;SDS011;66633;47.628;19.158;2023-06-22T06:33:58;10.32;;;6.22;;
77520;SDS011;66633;47.628;19.158;2023-06-22T06:36:23;12.18;;;6.40;;
77520;SDS011;66633;47.628;19.158;2023-06-22T06:38:49;12.63;;;6.35;;
77520;SDS011;66633;47.628;19.158;2023-06-22T06:41:15;14.18;;;6.78;;
77520;SDS011;66633;47.628;19.158;2023-06-22T06:43:41;8.80;;;5.97;;
77520;SDS011;66633;47.628;19.158;2023-06-22T06:46:08;14.48;;;7.43;;
77520;SDS011;66633;47.628;19.158;2023-06-22T06:48:33;10.07;;;6.65;;
77520;SDS011;66633;47.628;19.158;2023-06-22T06:54:21;13.23;;;5.82;;
77520;SDS011;66633;47.628;19.158;2023-06-22T06:56:49;12.13;;;4.60;;
77520;SDS011;66633;47.628;19.158;2023-06-22T06:59:15;10.60;;;4.93;;
77520;SDS011;66633;47.628;19.158;2023-06-22T07:01:41;10.15;;;5.20;;
77520;SDS011;66633;47.628;19.158;2023-06-22T07:04:09;8.23;;;4.28;;
77520;SDS011;66633;47.628;19.158;2023-06-22T07:06:34;8.43;;;4.05;;
77520;SDS011;66633;47.628;19.158;2023-06-22T07:09:00;8.23;;;4.30;;
77520;SDS011;66633;47.628;19.158;2023-06-22T07:11:26;10.15;;;4.10;;
77520;SDS011;66633;47.628;19.158;2023-06-22T07:13:51;8.55;;;4.35;;
77520;SDS011;66633;47.628;19.158;2023-06-22T07:16:17;10.48;;;5.05;;
77520;SDS011;66633;47.628;19.158;2023-06-22T07:18:43;10.45;;;4.63;;
77520;SDS011;66633;47.628;19.158;2023-06-22T07:21:08;8.07;;;4.60;;
77520;SDS011;66633;47.628;19.158;2023-06-22T07:23:34;9.68;;;4.53;;
77520;SDS011;66633;47.628;19.158;2023-06-22T07:26:00;8.05;;;4.47;;
77520;SDS011;66633;47.628;19.158;2023-06-22T07:28:27;8.50;;;4.40;;
77520;SDS011;66633;47.628;19.158;2023-06-22T07:30:56;8.77;;;4.20;;
77520;SDS011;66633;47.628;19.158;2023-06-22T07:33:21;8.55;;;4.53;;
77520;SDS011;66633;47.628;19.158;2023-06-22T07:35:47;10.60;;;4.70;;
77520;SDS011;66633;47.628;19.158;2023-06-22T07:38:13;8.18;;;4.07;;
77520;SDS011;66633;47.628;19.158;2023-06-22T07:40:39;9.30;;;4.60;;
77520;SDS011;66633;47.628;19.158;2023-06-22T07:43:06;10.00;;;5.13;;
77520;SDS011;66633;47.628;19.158;2023-06-22T07:45:32;10.85;;;4.43;;
77520;SDS011;66633;47.628;19.158;2023-06-22T07:47:59;9.57;;;4.82;;
77520;SDS011;66633;47.628;19.158;2023-06-22T07:50:25;8.45;;;4.97;;
77520;SDS011;66633;47.628;19.158;2023-06-22T07:52:50;11.38;;;4.97;;
77520;SDS011;66633;47.628;19.158;2023-06-22T07:55:17;8.95;;;5.63;;
77520;SDS011;66633;47.628;19.158;2023-06-22T07:57:43;10.70;;;5.28;;
77520;SDS011;66633;47.628;19.158;2023-06-22T08:00:09;9.15;;;5.15;;
77520;SDS011;66633;47.628;19.158;2023-06-22T08:02:40;10.43;;;5.95;;
77520;SDS011;66633;47.628;19.158;2023-06-22T08:05:06;11.98;;;5.85;;
77520;SDS011;66633;47.628;19.158;2023-06-22T08:07:36;10.35;;;5.00;;
77520;SDS011;66633;47.628;19.158;2023-06-22T08:10:03;11.23;;;6.07;;
77520;SDS011;66633;47.628;19.158;2023-06-22T08:12:29;9.32;;;5.35;;
77520;SDS011;66633;47.628;19.158;2023-06-22T08:14:54;12.40;;;5.15;;
77520;SDS011;66633;47.628;19.158;2023-06-22T08:17:21;12.05;;;5.97;;
77520;SDS011;66633;47.628;19.158;2023-06-22T08:19:47;8.50;;;4.45;;
77520;SDS011;66633;47.628;19.158;2023-06-22T08:22:13;9.82;;;4.93;;
77520;SDS011;66633;47.628;19.158;2023-06-22T08:24:38;9.80;;;4.90;;
77520;SDS011;66633;47.628;19.158;2023-06-22T08:27:04;10.73;;;5.43;;
77520;SDS011;66633;47.628;19.158;2023-06-22T08:29:33;10.57;;;5.15;;
77520;SDS011;66633;47.628;19.158;2023-06-22T08:31:59;9.13;;;5.60;;
77520;SDS011;66633;47.628;19.158;2023-06-22T08:34:24;11.90;;;5.47;;
77520;SDS011;66633;47.628;19.158;2023-06-22T08:36:50;10.23;;;6.00;;
77520;SDS011;66633;47.628;19.158;2023-06-22T08:39:17;10.75;;;5.18;;
77520;SDS011;66633;47.628;19.158;2023-06-22T08:41:43;9.65;;;5.55;;
77520;SDS011;66633;47.628;19.158;2023-06-22T08:44:08;10.07;;;5.28;;
77520;SDS011;66633;47.628;19.158;2023-06-22T08:46:33;12.50;;;6.28;;
77520;SDS011;66633;47.628;19.158;2023-06-22T08:48:59;11.15;;;5.60;;
77520;SDS011;66633;47.628;19.158;2023-06-22T08:51:25;15.15;;;5.72;;
77520;SDS011;66633;47.628;19.158;2023-06-22T08:53:50;8.27;;;4.75;;
77520;SDS011;66633;47.628;19.158;2023-06-22T08:56:16;10.55;;;5.88;;
77520;SDS011;66633;47.628;19.158;2023-06-22T08:58:41;10.13;;;5.47;;
77520;SDS011;66633;47.628;19.158;2023-06-22T09:01:06;10.82;;;5.28;;
77520;SDS011;66633;47.628;19.158;2023-06-22T09:03:32;9.07;;;5.00;;
77520;SDS011;66633;47.628;19.158;2023-06-22T09:05:58;10.75;;;5.35;;
77520;SDS011;66633;47.628;19.158;2023-06-22T09:08:23;9.65;;;5.20;;
77520;SDS011;66633;47.628;19.158;2023-06-22T09:10:49;10.70;;;6.15;;
77520;SDS011;66633;47.628;19.158;2023-06-22T09:13:14;9.27;;;5.22;;
77520;SDS011;66633;47.628;19.158;2023-06-22T09:15:40;12.02;;;6.05;;
77520;SDS011;66633;47.628;19.158;2023-06-22T09:18:05;10.40;;;5.80;;
77520;SDS011;66633;47.628;19.158;2023-06-22T09:20:31;11.30;;;5.80;;
77520;SDS011;66633;47.628;19.158;2023-06-22T09:22:56;11.70;;;5.43;;
77520;SDS011;66633;47.628;19.158;2023-06-22T09:25:22;10.48;;;6.00;;
77520;SDS011;66633;47.628;19.158;2023-06-22T09:27:47;11.40;;;6.15;;
77520;SDS011;66633;47.628;19.158;2023-06-22T09:30:13;11.15;;;5.88;;
77520;SDS011;66633;47.628;19.158;2023-06-22T09:32:38;12.57;;;5.60;;
77520;SDS011;66633;47.628;19.158;2023-06-22T09:35:04;10.90;;;6.10;;
77520;SDS011;66633;47.628;19.158;2023-06-22T09:37:34;15.30;;;6.75;;
77520;SDS011;66633;47.628;19.158;2023-06-22T09:40:00;10.32;;;5.32;;
77520;SDS011;66633;47.628;19.158;2023-06-22T09:42:26;11.02;;;6.13;;
77520;SDS011;66633;47.628;19.158;2023-06-22T09:44:51;10.65;;;5.90;;
77520;SDS011;66633;47.628;19.158;2023-06-22T09:47:17;11.02;;;6.45;;
77520;SDS011;66633;47.628;19.158;2023-06-22T09:49:42;13.95;;;7.22;;
77520;SDS011;66633;47.628;19.158;2023-06-22T09:52:08;10.80;;;7.32;;
77520;SDS011;66633;47.628;19.158;2023-06-22T09:54:33;15.02;;;7.13;;
77520;SDS011;66633;47.628;19.158;2023-06-22T09:56:58;11.55;;;7.55;;
77520;SDS011;66633;47.628;19.158;2023-06-22T09:59:24;12.15;;;7.50;;
77520;SDS011;66633;47.628;19.158;2023-06-22T10:01:49;13.13;;;7.13;;
77520;SDS011;66633;47.628;19.158;2023-06-22T10:04:14;12.27;;;8.15;;
77520;SDS011;66633;47.628;19.158;2023-06-22T10:06:40;12.07;;;7.97;;
77520;SDS011;66633;47.628;19.158;2023-06-22T10:09:06;12.48;;;7.90;;
77520;SDS011;66633;47.628;19.158;2023-06-22T10:11:33;12.10;;;7.10;;
77520;SDS011;66633;47.628;19.158;2023-06-22T10:14:00;12.95;;;8.10;;
77520;SDS011;66633;47.628;19.158;2023-06-22T10:16:30;14.02;;;8.90;;
77520;SDS011;66633;47.628;19.158;2023-06-22T10:18:56;13.60;;;7.60;;
77520;SDS011;66633;47.628;19.158;2023-06-22T10:21:21;13.70;;;8.45;;
77520;SDS011;66633;47.628;19.158;2023-06-22T10:23:46;13.20;;;8.30;;
77520;SDS011;66633;47.628;19.158;2023-06-22T10:26:12;11.93;;;9.15;;
77520;SDS011;66633;47.628;19.158;2023-06-22T10:28:37;14.27;;;9.13;;
77520;SDS011;66633;47.628;19.158;2023-06-22T10:31:03;10.50;;;8.18;;
77520;SDS011;66633;47.628;19.158;2023-06-22T10:33:28;12.10;;;8.10;;
77520;SDS011;66633;47.628;19.158;2023-06-22T10:35:53;14.00;;;9.07;;
77520;SDS011;66633;47.628;19.158;2023-06-22T10:38:20;14.30;;;8.45;;
77520;SDS011;66633;47.628;19.158;2023-06-22T10:40:46;11.32;;;7.60;;
77520;SDS011;66633;47.628;19.158;2023-06-22T10:43:11;14.05;;;8.25;;
77520;SDS011;66633;47.628;19.158;2023-06-22T10:45:36;11.75;;;7.80;;
77520;SDS011;66633;47.628;19.158;2023-06-22T10:48:02;15.90;;;8.98;;
77520;SDS011;66633;47.628;19.158;2023-06-22T10:50:27;12.10;;;9.13;;
77520;SDS011;66633;47.628;19.158;2023-06-22T10:52:53;11.73;;;7.97;;
77520;SDS011;66633;47.628;19.158;2023-06-22T10:55:19;12.32;;;7.80;;
77520;SDS011;66633;47.628;19.158;2023-06-22T10:57:45;13.10;;;9.18;;
77520;SDS011;66633;47.628;19.158;2023-06-22T11:00:12;14.27;;;8.43;;
77520;SDS011;66633;47.628;19.158;2023-06-22T11:02:39;11.88;;;7.75;;
77520;SDS011;66633;47.628;19.158;2023-06-22T11:05:04;13.65;;;8.68;;
77520;SDS011;66633;47.628;19.158;2023-06-22T11:07:30;10.73;;;7.45;;
77520;SDS011;66633;47.628;19.158;2023-06-22T11:09:56;11.13;;;7.82;;
77520;SDS011;66633;47.628;19.158;2023-06-22T11:12:21;14.43;;;8.27;;
77520;SDS011;66633;47.628;19.158;2023-06-22T11:14:47;12.32;;;7.88;;
77520;SDS011;66633;47.628;19.158;2023-06-22T11:17:12;11.77;;;8.25;;
77520;SDS011;66633;47.628;19.158;2023-06-22T11:19:38;12.93;;;8.27;;
77520;SDS011;66633;47.628;19.158;2023-06-22T11:22:03;11.70;;;8.95;;
77520;SDS011;66633;47.628;19.158;2023-06-22T11:24:29;11.80;;;8.80;;
77520;SDS011;66633;47.628;19.158;2023-06-22T11:26:54;12.30;;;8.20;;
77520;SDS011;66633;47.628;19.158;2023-06-22T11:29:19;11.65;;;8.10;;
77520;SDS011;66633;47.628;19.158;2023-06-22T11:31:45;11.85;;;9.18;;
77520;SDS011;66633;47.628;19.158;2023-06-22T11:34:10;11.88;;;8.27;;
77520;SDS011;66633;47.628;19.158;2023-06-22T11:36:36;13.73;;;8.40;;
77520;SDS011;66633;47.628;19.158;2023-06-22T11:39:01;11.30;;;8.25;;
77520;SDS011;66633;47.628;19.158;2023-06-22T11:41:27;14.93;;;8.50;;
77520;SDS011;66633;47.628;19.158;2023-06-22T11:43:52;11.15;;;8.10;;
77520;SDS011;66633;47.628;19.158;2023-06-22T11:46:18;12.20;;;10.57;;
77520;SDS011;66633;47.628;19.158;2023-06-22T11:48:43;11.75;;;9.18;;
77520;SDS011;66633;47.628;19.158;2023-06-22T11:51:08;11.60;;;9.00;;
77520;SDS011;66633;47.628;19.158;2023-06-22T11:53:34;11.75;;;8.70;;
77520;SDS011;66633;47.628;19.158;2023-06-22T11:56:00;11.07;;;8.73;;
77520;SDS011;66633;47.628;19.158;2023-06-22T11:58:26;13.95;;;9.55;;
77520;SDS011;66633;47.628;19.158;2023-06-22T12:00:51;11.98;;;9.85;;
77520;SDS011;66633;47.628;19.158;2023-06-22T12:03:17;11.57;;;8.32;;
77520;SDS011;66633;47.628;19.158;2023-06-22T12:05:42;12.45;;;9.20;;
77520;SDS011;66633;47.628;19.158;2023-06-22T12:08:08;12.32;;;8.40;;
77520;SDS011;66633;47.628;19.158;2023-06-22T12:10:34;12.38;;;9.23;;
77520;SDS011;66633;47.628;19.158;2023-06-22T12:12:59;13.40;;;9.20;;
77520;SDS011;66633;47.628;19.158;2023-06-22T12:15:25;13.98;;;9.32;;
77520;SDS011;66633;47.628;19.158;2023-06-22T12:17:51;12.63;;;8.48;;
77520;SDS011;66633;47.628;19.158;2023-06-22T12:20:16;14.50;;;9.50;;
77520;SDS011;66633;47.628;19.158;2023-06-22T12:22:42;13.95;;;9.93;;
77520;SDS011;66633;47.628;19.158;2023-06-22T12:25:08;12.88;;;9.77;;
77520;SDS011;66633;47.628;19.158;2023-06-22T12:27:34;14.77;;;10.98;;
77520;SDS011;66633;47.628;19.158;2023-06-22T12:30:00;17.35;;;10.07;;
77520;SDS011;66633;47.628;19.158;2023-06-22T12:32:26;11.30;;;9.32;;
77520;SDS011;66633;47.628;19.158;2023-06-22T12:34:52;14.18;;;10.45;;
77520;SDS011;66633;47.628;19.158;2023-06-22T12:37:17;10.70;;;9.25;;
77520;SDS011;66633;47.628;19.158;2023-06-22T12:39:43;12.95;;;9.38;;
77520;SDS011;66633;47.628;19.158;2023-06-22T12:42:08;12.02;;;8.75;;
77520;SDS011;66633;47.628;19.158;2023-06-22T12:44:35;15.43;;;11.02;;
77520;SDS011;66633;47.628;19.158;2023-06-22T12:47:00;12.48;;;10.32;;
77520;SDS011;66633;47.628;19.158;2023-06-22T12:49:26;11.35;;;9.48;;
77520;SDS011;66633;47.628;19.158;2023-06-22T12:51:51;11.68;;;8.88;;
77520;SDS011;66633;47.628;19.158;2023-06-22T12:54:17;14.48;;;9.95;;
77520;SDS011;66633;47.628;19.158;2023-06-22T12:56:43;11.90;;;8.93;;
77520;SDS011;66633;47.628;19.158;2023-06-22T12:59:10;12.30;;;9.27;;
77520;SDS011;66633;47.628;19.158;2023-06-22T13:01:35;14.40;;;9.55;;
77520;SDS011;66633;47.628;19.158;2023-06-22T13:04:02;13.65;;;9.50;;
77520;SDS011;66633;47.628;19.158;2023-06-22T13:06:28;13.10;;;9.95;;
77520;SDS011;66633;47.628;19.158;2023-06-22T13:08:54;13.32;;;9.32;;
77520;SDS011;66633;47.628;19.158;2023-06-22T13:11:19;12.43;;;9.13;;
77520;SDS011;66633;47.628;19.158;2023-06-22T13:13:45;14.15;;;9.27;;
77520;SDS011;66633;47.628;19.158;2023-06-22T13:16:10;13.48;;;9.68;;
77520;SDS011;66633;47.628;19.158;2023-06-22T13:18:36;11.98;;;8.68;;
77520;SDS011;66633;47.628;19.158;2023-06-22T13:21:02;11.38;;;7.80;;
77520;SDS011;66633;47.628;19.158;2023-06-22T13:23:28;9.57;;;7.88;;
77520;SDS011;66633;47.628;19.158;2023-06-22T13:25:53;11.45;;;8.60;;
77520;SDS011;66633;47.628;19.158;2023-06-22T13:28:19;12.27;;;9.50;;
77520;SDS011;66633;47.628;19.158;2023-06-22T13:30:45;13.55;;;9.60;;
77520;SDS011;66633;47.628;19.158;2023-06-22T13:33:12;14.13;;;9.75;;
77520;SDS011;66633;47.628;19.158;2023-06-22T13:35:41;11.80;;;10.55;;
77520;SDS011;66633;47.628;19.158;2023-06-22T13:38:10;11.38;;;9.40;;
77520;SDS011;66633;47.628;19.158;2023-06-22T13:40:36;13.18;;;11.70;;
77520;SDS011;66633;47.628;19.158;2023-06-22T13:43:03;12.68;;;11.15;;
77520;SDS011;66633;47.628;19.158;2023-06-22T13:45:29;11.75;;;10.15;;
77520;SDS011;66633;47.628;19.158;2023-06-22T13:47:56;13.82;;;10.73;;
77520;SDS011;66633;47.628;19.158;2023-06-22T13:50:21;14.35;;;10.85;;
77520;SDS011;66633;47.628;19.158;2023-06-22T13:52:46;14.05;;;11.20;;
77520;SDS011;66633;47.628;19.158;2023-06-22T13:55:12;13.50;;;11.70;;
77520;SDS011;66633;47.628;19.158;2023-06-22T13:57:39;12.27;;;10.98;;
77520;SDS011;66633;47.628;19.158;2023-06-22T14:00:05;13.45;;;10.88;;
77520;SDS011;66633;47.628;19.158;2023-06-22T14:02:32;12.68;;;10.82;;
77520;SDS011;66633;47.628;19.158;2023-06-22T14:04:57;13.50;;;10.57;;
77520;SDS011;66633;47.628;19.158;2023-06-22T14:07:22;13.75;;;12.43;;
77520;SDS011;66633;47.628;19.158;2023-06-22T14:09:49;13.07;;;10.60;;
77520;SDS011;66633;47.628;19.158;2023-06-22T14:12:15;12.27;;;11.00;;
77520;SDS011;66633;47.628;19.158;2023-06-22T14:14:40;14.32;;;12.43;;
77520;SDS011;66633;47.628;19.158;2023-06-22T14:17:06;12.52;;;11.18;;
77520;SDS011;66633;47.628;19.158;2023-06-22T14:19:31;12.60;;;11.43;;
77520;SDS011;66633;47.628;19.158;2023-06-22T14:21:57;14.18;;;12.77;;
77520;SDS011;66633;47.628;19.158;2023-06-22T14:24:23;12.75;;;11.45;;
77520;SDS011;66633;47.628;19.158;2023-06-22T14:26:48;13.65;;;11.15;;
77520;SDS011;66633;47.628;19.158;2023-06-22T14:29:14;13.80;;;12.10;;
77520;SDS011;66633;47.628;19.158;2023-06-22T14:31:39;11.40;;;10.20;;
77520;SDS011;66633;47.628;19.158;2023-06-22T14:34:05;12.65;;;11.05;;
77520;SDS011;66633;47.628;19.158;2023-06-22T14:36:31;12.98;;;11.02;;